sensor_id;sensor_type;location;lat;lon;timestamp;P1;durP1;ratioP1;P2;durP2;ratioP2
38901;SDS011;24661;53.566;9.910;2023-04-01T00:00:51;11.20;;;6.00;;
38901;SDS011;24661;53.566;9.910;2023-04-01T00:03:18;10.03;;;5.90;;
38901;SDS011;24661;53.566;9.910;2023-04-01T00:05:45;12.50;;;6.13;;
38901;SDS011;24661;53.566;9.910;2023-04-01T00:08:11;9.30;;;6.00;;
38901;SDS011;24661;53.566;9.910;2023-04-01T00:10:37;14.57;;;5.40;;
38901;SDS011;24661;53.566;9.910;2023-04-01T00:13:02;10.33;;;6.00;;
38901;SDS011;24661;53.566;9.910;2023-04-01T00:15:28;11.20;;;6.53;;
38901;SDS011;24661;53.566;9.910;2023-04-01T00:17:54;12.27;;;6.07;;
38901;SDS011;24661;53.566;9.910;2023-04-01T00:20:20;10.30;;;5.87;;
38901;SDS011;24661;53.566;9.910;2023-04-01T00:22:45;19.23;;;6.83;;
38901;SDS011;24661;53.566;9.910;2023-04-01T00:25:11;12.33;;;5.60;;
38901;SDS011;24661;53.566;9.910;2023-04-01T00:27:37;16.10;;;6.37;;
38901;SDS011;24661;53.566;9.910;2023-04-01T00:30:02;9.17;;;5.83;;
38901;SDS011;24661;53.566;9.910;2023-04-01T00:32:28;11.80;;;6.40;;
38901;SDS011;24661;53.566;9.910;2023-04-01T00:34:55;15.63;;;5.67;;
38901;SDS011;24661;53.566;9.910;2023-04-01T00:37:21;13.00;;;6.27;;
38901;SDS011;24661;53.566;9.910;2023-04-01T00:39:47;13.77;;;7.07;;
38901;SDS011;24661;53.566;9.910;2023-04-01T00:42:13;9.43;;;6.07;;
38901;SDS011;24661;53.566;9.910;2023-04-01T00:44:39;14.80;;;7.50;;
38901;SDS011;24661;53.566;9.910;2023-04-01T00:47:06;13.30;;;6.63;;
38901;SDS011;24661;53.566;9.910;2023-04-01T00:49:33;10.23;;;5.67;;
38901;SDS011;24661;53.566;9.910;2023-04-01T00:52:03;12.80;;;6.50;;
38901;SDS011;24661;53.566;9.910;2023-04-01T00:54:30;11.97;;;5.63;;
38901;SDS011;24661;53.566;9.910;2023-04-01T00:57:02;12.37;;;6.60;;
38901;SDS011;24661;53.566;9.910;2023-04-01T00:59:32;12.43;;;6.80;;
38901;SDS011;24661;53.566;9.910;2023-04-01T01:02:02;10.30;;;5.83;;
38901;SDS011;24661;53.566;9.910;2023-04-01T01:04:31;10.47;;;6.93;;
38901;SDS011;24661;53.566;9.910;2023-04-01T01:07:42;17.33;;;6.37;;
38901;SDS011;24661;53.566;9.910;2023-04-01T01:15:23;10.47;;;5.83;;
38901;SDS011;24661;53.566;9.910;2023-04-01T01:31:55;11.60;;;6.43;;
38901;SDS011;24661;53.566;9.910;2023-04-01T01:37:40;11.90;;;6.20;;
38901;SDS011;24661;53.566;9.910;2023-04-01T01:40:09;12.20;;;6.40;;
38901;SDS011;24661;53.566;9.910;2023-04-01T01:42:37;12.77;;;6.37;;
38901;SDS011;24661;53.566;9.910;2023-04-01T01:45:06;12.60;;;6.33;;
38901;SDS011;24661;53.566;9.910;2023-04-01T01:47:34;14.73;;;6.47;;
38901;SDS011;24661;53.566;9.910;2023-04-01T01:50:00;17.00;;;6.80;;
38901;SDS011;24661;53.566;9.910;2023-04-01T01:52:28;15.77;;;7.30;;
38901;SDS011;24661;53.566;9.910;2023-04-01T01:54:55;13.03;;;6.17;;
38901;SDS011;24661;53.566;9.910;2023-04-01T01:57:30;16.33;;;6.70;;
38901;SDS011;24661;53.566;9.910;2023-04-01T02:00:02;11.47;;;5.60;;
38901;SDS011;24661;53.566;9.910;2023-04-01T02:02:38;14.30;;;6.47;;
38901;SDS011;24661;53.566;9.910;2023-04-01T02:05:05;10.80;;;5.93;;
38901;SDS011;24661;53.566;9.910;2023-04-01T02:07:34;11.30;;;5.67;;
38901;SDS011;24661;53.566;9.910;2023-04-01T02:10:02;15.27;;;6.60;;
38901;SDS011;24661;53.566;9.910;2023-04-01T02:12:29;13.73;;;6.60;;
38901;SDS011;24661;53.566;9.910;2023-04-01T02:15:00;13.17;;;6.47;;
38901;SDS011;24661;53.566;9.910;2023-04-01T02:17:31;9.07;;;6.30;;
38901;SDS011;24661;53.566;9.910;2023-04-01T02:22:27;8.70;;;6.27;;
38901;SDS011;24661;53.566;9.910;2023-04-01T02:25:09;17.33;;;7.23;;
38901;SDS011;24661;53.566;9.910;2023-04-01T02:27:38;12.37;;;6.53;;
38901;SDS011;24661;53.566;9.910;2023-04-01T02:30:05;14.47;;;6.43;;
38901;SDS011;24661;53.566;9.910;2023-04-01T02:32:32;8.87;;;6.47;;
38901;SDS011;24661;53.566;9.910;2023-04-01T02:35:00;10.83;;;6.83;;
38901;SDS011;24661;53.566;9.910;2023-04-01T02:37:30;15.30;;;7.50;;
38901;SDS011;24661;53.566;9.910;2023-04-01T02:40:00;13.50;;;6.80;;
38901;SDS011;24661;53.566;9.910;2023-04-01T02:42:27;12.43;;;7.37;;
38901;SDS011;24661;53.566;9.910;2023-04-01T02:44:53;15.87;;;7.53;;
38901;SDS011;24661;53.566;9.910;2023-04-01T02:47:18;16.80;;;9.20;;
38901;SDS011;24661;53.566;9.910;2023-04-01T02:49:44;15.17;;;7.97;;
38901;SDS011;24661;53.566;9.910;2023-04-01T02:52:09;15.47;;;7.23;;
38901;SDS011;24661;53.566;9.910;2023-04-01T02:54:35;14.40;;;7.80;;
38901;SDS011;24661;53.566;9.910;2023-04-01T02:57:01;14.93;;;9.50;;
38901;SDS011;24661;53.566;9.910;2023-04-01T02:59:26;12.17;;;7.27;;
38901;SDS011;24661;53.566;9.910;2023-04-01T03:01:52;12.70;;;7.70;;
38901;SDS011;24661;53.566;9.910;2023-04-01T03:04:17;13.73;;;7.73;;
38901;SDS011;24661;53.566;9.910;2023-04-01T03:06:43;13.63;;;6.60;;
38901;SDS011;24661;53.566;9.910;2023-04-01T03:09:08;24.50;;;8.40;;
38901;SDS011;24661;53.566;9.910;2023-04-01T03:11:34;12.67;;;6.80;;
38901;SDS011;24661;53.566;9.910;2023-04-01T03:14:00;12.27;;;7.40;;
38901;SDS011;24661;53.566;9.910;2023-04-01T03:16:26;14.17;;;8.13;;
38901;SDS011;24661;53.566;9.910;2023-04-01T03:18:51;14.30;;;7.73;;
38901;SDS011;24661;53.566;9.910;2023-04-01T03:21:19;13.53;;;7.77;;
38901;SDS011;24661;53.566;9.910;2023-04-01T03:23:46;12.57;;;7.73;;
38901;SDS011;24661;53.566;9.910;2023-04-01T03:26:12;15.07;;;8.30;;
38901;SDS011;24661;53.566;9.910;2023-04-01T03:28:38;10.77;;;8.97;;
38901;SDS011;24661;53.566;9.910;2023-04-01T03:31:04;11.70;;;7.90;;
38901;SDS011;24661;53.566;9.910;2023-04-01T03:33:30;11.53;;;7.23;;
38901;SDS011;24661;53.566;9.910;2023-04-01T03:35:56;10.07;;;6.60;;
38901;SDS011;24661;53.566;9.910;2023-04-01T03:38:22;8.30;;;5.77;;
38901;SDS011;24661;53.566;9.910;2023-04-01T03:40:48;14.57;;;7.10;;
38901;SDS011;24661;53.566;9.910;2023-04-01T03:43:13;10.87;;;6.27;;
38901;SDS011;24661;53.566;9.910;2023-04-01T03:45:45;8.70;;;6.27;;
38901;SDS011;24661;53.566;9.910;2023-04-01T03:48:15;11.47;;;6.10;;
38901;SDS011;24661;53.566;9.910;2023-04-01T03:50:41;10.53;;;5.90;;
38901;SDS011;24661;53.566;9.910;2023-04-01T03:53:07;10.70;;;5.77;;
38901;SDS011;24661;53.566;9.910;2023-04-01T03:55:33;9.63;;;6.03;;
38901;SDS011;24661;53.566;9.910;2023-04-01T03:58:00;10.97;;;6.20;;
38901;SDS011;24661;53.566;9.910;2023-04-01T04:00:27;14.07;;;6.60;;
38901;SDS011;24661;53.566;9.910;2023-04-01T04:02:53;9.67;;;5.90;;
38901;SDS011;24661;53.566;9.910;2023-04-01T04:05:21;8.63;;;5.73;;
38901;SDS011;24661;53.566;9.910;2023-04-01T04:07:47;9.10;;;5.30;;
38901;SDS011;24661;53.566;9.910;2023-04-01T04:10:12;9.47;;;5.83;;
38901;SDS011;24661;53.566;9.910;2023-04-01T04:12:38;12.43;;;7.07;;
38901;SDS011;24661;53.566;9.910;2023-04-01T04:15:05;14.37;;;6.90;;
38901;SDS011;24661;53.566;9.910;2023-04-01T04:17:31;12.00;;;7.30;;
38901;SDS011;24661;53.566;9.910;2023-04-01T04:19:57;14.23;;;7.80;;
38901;SDS011;24661;53.566;9.910;2023-04-01T04:22:22;11.67;;;7.07;;
38901;SDS011;24661;53.566;9.910;2023-04-01T04:24:48;15.73;;;7.97;;
38901;SDS011;24661;53.566;9.910;2023-04-01T04:27:14;10.47;;;6.97;;
38901;SDS011;24661;53.566;9.910;2023-04-01T04:29:40;12.37;;;7.57;;
38901;SDS011;24661;53.566;9.910;2023-04-01T04:32:05;14.10;;;7.43;;
38901;SDS011;24661;53.566;9.910;2023-04-01T04:34:31;14.83;;;8.07;;
38901;SDS011;24661;53.566;9.910;2023-04-01T04:36:57;15.20;;;8.10;;
38901;SDS011;24661;53.566;9.910;2023-04-01T04:39:23;11.93;;;7.37;;
38901;SDS011;24661;53.566;9.910;2023-04-01T04:41:48;11.13;;;7.30;;
38901;SDS011;24661;53.566;9.910;2023-04-01T04:44:14;13.97;;;7.50;;
38901;SDS011;24661;53.566;9.910;2023-04-01T04:46:39;9.70;;;6.90;;
38901;SDS011;24661;53.566;9.910;2023-04-01T04:49:05;11.10;;;7.63;;
38901;SDS011;24661;53.566;9.910;2023-04-01T04:51:31;9.77;;;7.13;;
38901;SDS011;24661;53.566;9.910;2023-04-01T04:54:01;12.17;;;8.10;;
38901;SDS011;24661;53.566;9.910;2023-04-01T04:56:27;14.03;;;8.10;;
38901;SDS011;24661;53.566;9.910;2023-04-01T04:58:53;11.20;;;7.47;;
38901;SDS011;24661;53.566;9.910;2023-04-01T05:01:19;11.37;;;7.70;;
38901;SDS011;24661;53.566;9.910;2023-04-01T05:03:45;14.57;;;8.37;;
38901;SDS011;24661;53.566;9.910;2023-04-01T05:06:12;11.30;;;6.37;;
38901;SDS011;24661;53.566;9.910;2023-04-01T05:08:40;13.57;;;7.63;;
38901;SDS011;24661;53.566;9.910;2023-04-01T05:11:09;10.93;;;7.53;;
38901;SDS011;24661;53.566;9.910;2023-04-01T05:13:36;10.47;;;6.80;;
38901;SDS011;24661;53.566;9.910;2023-04-01T05:16:02;12.43;;;8.03;;
38901;SDS011;24661;53.566;9.910;2023-04-01T05:18:28;14.43;;;6.83;;
38901;SDS011;24661;53.566;9.910;2023-04-01T05:20:54;11.93;;;6.40;;
38901;SDS011;24661;53.566;9.910;2023-04-01T05:23:20;12.93;;;7.20;;
38901;SDS011;24661;53.566;9.910;2023-04-01T05:25:47;10.27;;;6.80;;
38901;SDS011;24661;53.566;9.910;2023-04-01T05:28:13;15.00;;;8.17;;
38901;SDS011;24661;53.566;9.910;2023-04-01T05:30:40;10.23;;;7.13;;
38901;SDS011;24661;53.566;9.910;2023-04-01T05:33:06;16.17;;;7.43;;
38901;SDS011;24661;53.566;9.910;2023-04-01T05:35:32;10.17;;;7.13;;
38901;SDS011;24661;53.566;9.910;2023-04-01T05:37:58;9.03;;;6.80;;
38901;SDS011;24661;53.566;9.910;2023-04-01T05:40:24;10.20;;;6.73;;
38901;SDS011;24661;53.566;9.910;2023-04-01T05:42:51;2.77;;;2.33;;
38901;SDS011;24661;53.566;9.910;2023-04-01T05:45:17;1.60;;;1.50;;
38901;SDS011;24661;53.566;9.910;2023-04-01T05:47:42;1.87;;;1.20;;
38901;SDS011;24661;53.566;9.910;2023-04-01T05:50:08;1.20;;;1.10;;
38901;SDS011;24661;53.566;9.910;2023-04-01T05:52:36;3.87;;;2.47;;
38901;SDS011;24661;53.566;9.910;2023-04-01T05:55:02;2.47;;;1.00;;
38901;SDS011;24661;53.566;9.910;2023-04-01T05:57:28;1.27;;;0.90;;
38901;SDS011;24661;53.566;9.910;2023-04-01T05:59:54;2.00;;;0.77;;
38901;SDS011;24661;53.566;9.910;2023-04-01T06:02:20;1.03;;;0.90;;
38901;SDS011;24661;53.566;9.910;2023-04-01T06:04:46;1.10;;;0.87;;
38901;SDS011;24661;53.566;9.910;2023-04-01T06:07:15;1.20;;;1.03;;
38901;SDS011;24661;53.566;9.910;2023-04-01T06:09:43;4.37;;;2.40;;
38901;SDS011;24661;53.566;9.910;2023-04-01T06:25:47;2.60;;;1.47;;
38901;SDS011;24661;53.566;9.910;2023-04-01T06:45:08;1.53;;;1.17;;
38901;SDS011;24661;53.566;9.910;2023-04-01T06:55:46;2.03;;;1.20;;
38901;SDS011;24661;53.566;9.910;2023-04-01T06:58:21;1.90;;;1.10;;
38901;SDS011;24661;53.566;9.910;2023-04-01T07:00:59;0.80;;;0.80;;
38901;SDS011;24661;53.566;9.910;2023-04-01T07:03:41;0.70;;;0.70;;
38901;SDS011;24661;53.566;9.910;2023-04-01T07:06:14;0.80;;;0.80;;
38901;SDS011;24661;53.566;9.910;2023-04-01T07:08:48;1.07;;;0.87;;
38901;SDS011;24661;53.566;9.910;2023-04-01T07:11:23;1.10;;;0.83;;
38901;SDS011;24661;53.566;9.910;2023-04-01T07:14:04;1.50;;;1.03;;
38901;SDS011;24661;53.566;9.910;2023-04-01T07:16:49;1.03;;;0.80;;
38901;SDS011;24661;53.566;9.910;2023-04-01T07:19:25;1.63;;;1.07;;
38901;SDS011;24661;53.566;9.910;2023-04-01T07:22:21;2.33;;;1.10;;
38901;SDS011;24661;53.566;9.910;2023-04-01T07:25:07;1.47;;;0.97;;
38901;SDS011;24661;53.566;9.910;2023-04-01T07:27:41;1.17;;;1.07;;
38901;SDS011;24661;53.566;9.910;2023-04-01T07:30:13;1.60;;;0.70;;
38901;SDS011;24661;53.566;9.910;2023-04-01T07:35:33;1.43;;;0.80;;
38901;SDS011;24661;53.566;9.910;2023-04-01T07:54:13;1.20;;;0.90;;
38901;SDS011;24661;53.566;9.910;2023-04-01T07:57:05;1.57;;;0.90;;
38901;SDS011;24661;53.566;9.910;2023-04-01T08:02:15;1.13;;;0.70;;
38901;SDS011;24661;53.566;9.910;2023-04-01T08:07:25;0.77;;;0.77;;
38901;SDS011;24661;53.566;9.910;2023-04-01T08:10:18;1.67;;;0.50;;
38901;SDS011;24661;53.566;9.910;2023-04-01T08:15:33;1.13;;;0.83;;
38901;SDS011;24661;53.566;9.910;2023-04-01T08:21:52;3.97;;;1.93;;
38901;SDS011;24661;53.566;9.910;2023-04-01T08:27:31;1.17;;;0.70;;
38901;SDS011;24661;53.566;9.910;2023-04-01T08:32:36;0.73;;;0.73;;
38901;SDS011;24661;53.566;9.910;2023-04-01T08:35:20;1.33;;;1.10;;
38901;SDS011;24661;53.566;9.910;2023-04-01T08:37:54;1.40;;;1.03;;
38901;SDS011;24661;53.566;9.910;2023-04-01T08:43:16;0.30;;;0.30;;
38901;SDS011;24661;53.566;9.910;2023-04-01T08:46:18;1.83;;;0.67;;
38901;SDS011;24661;53.566;9.910;2023-04-01T08:49:10;3.77;;;2.00;;
38901;SDS011;24661;53.566;9.910;2023-04-01T09:11:30;1.63;;;0.60;;
38901;SDS011;24661;53.566;9.910;2023-04-01T09:25:24;1.67;;;0.63;;
38901;SDS011;24661;53.566;9.910;2023-04-01T09:28:17;0.63;;;0.60;;
38901;SDS011;24661;53.566;9.910;2023-04-01T09:39:18;1.20;;;0.50;;
38901;SDS011;24661;53.566;9.910;2023-04-01T09:57:46;1.70;;;0.40;;
38901;SDS011;24661;53.566;9.910;2023-04-01T10:00:49;0.63;;;0.63;;
38901;SDS011;24661;53.566;9.910;2023-04-01T10:12:02;0.87;;;0.70;;
38901;SDS011;24661;53.566;9.910;2023-04-01T10:48:26;0.80;;;0.57;;
38901;SDS011;24661;53.566;9.910;2023-04-01T11:26:12;1.07;;;0.83;;
38901;SDS011;24661;53.566;9.910;2023-04-01T11:31:25;1.13;;;0.60;;
38901;SDS011;24661;53.566;9.910;2023-04-01T11:42:40;1.23;;;0.93;;
38901;SDS011;24661;53.566;9.910;2023-04-01T11:56:13;1.33;;;1.10;;
38901;SDS011;24661;53.566;9.910;2023-04-01T11:58:57;1.27;;;1.13;;
38901;SDS011;24661;53.566;9.910;2023-04-01T12:07:11;1.53;;;1.43;;
38901;SDS011;24661;53.566;9.910;2023-04-01T12:09:57;5.67;;;1.50;;
38901;SDS011;24661;53.566;9.910;2023-04-01T12:13:08;3.33;;;1.67;;
38901;SDS011;24661;53.566;9.910;2023-04-01T12:44:41;5.20;;;2.37;;
38901;SDS011;24661;53.566;9.910;2023-04-01T12:53:25;4.93;;;2.97;;
38901;SDS011;24661;53.566;9.910;2023-04-01T12:56:28;5.83;;;2.93;;
38901;SDS011;24661;53.566;9.910;2023-04-01T13:01:52;4.23;;;3.10;;
38901;SDS011;24661;53.566;9.910;2023-04-01T13:09:42;5.63;;;2.63;;
38901;SDS011;24661;53.566;9.910;2023-04-01T13:20:20;9.53;;;3.53;;
38901;SDS011;24661;53.566;9.910;2023-04-01T13:23:48;2.77;;;1.63;;
38901;SDS011;24661;53.566;9.910;2023-04-01T13:29:26;2.53;;;1.90;;
38901;SDS011;24661;53.566;9.910;2023-04-01T13:35:04;3.13;;;2.00;;
38901;SDS011;24661;53.566;9.910;2023-04-01T13:42:51;3.00;;;2.00;;
38901;SDS011;24661;53.566;9.910;2023-04-01T13:53:55;4.70;;;2.00;;
38901;SDS011;24661;53.566;9.910;2023-04-01T14:02:03;6.20;;;2.47;;
38901;SDS011;24661;53.566;9.910;2023-04-01T14:07:59;4.30;;;2.73;;
38901;SDS011;24661;53.566;9.910;2023-04-01T14:10:58;2.80;;;2.40;;
38901;SDS011;24661;53.566;9.910;2023-04-01T14:19:44;3.13;;;2.37;;
38901;SDS011;24661;53.566;9.910;2023-04-01T14:22:42;6.40;;;2.50;;
38901;SDS011;24661;53.566;9.910;2023-04-01T14:47:58;5.20;;;3.40;;
38901;SDS011;24661;53.566;9.910;2023-04-01T14:50:43;4.23;;;2.93;;
38901;SDS011;24661;53.566;9.910;2023-04-01T14:55:51;6.83;;;2.57;;
38901;SDS011;24661;53.566;9.910;2023-04-01T15:07:51;5.67;;;3.40;;
38901;SDS011;24661;53.566;9.910;2023-04-01T15:13:22;9.33;;;4.10;;
38901;SDS011;24661;53.566;9.910;2023-04-01T15:16:07;8.80;;;5.50;;
38901;SDS011;24661;53.566;9.910;2023-04-01T15:34:53;9.13;;;5.83;;
38901;SDS011;24661;53.566;9.910;2023-04-01T15:37:56;9.23;;;3.77;;
38901;SDS011;24661;53.566;9.910;2023-04-01T15:40:29;4.77;;;3.80;;
38901;SDS011;24661;53.566;9.910;2023-04-01T15:52:24;8.93;;;5.50;;
38901;SDS011;24661;53.566;9.910;2023-04-01T16:04:26;8.37;;;4.60;;
38901;SDS011;24661;53.566;9.910;2023-04-01T16:33:31;11.30;;;5.50;;
38901;SDS011;24661;53.566;9.910;2023-04-01T16:35:55;9.10;;;4.37;;
38901;SDS011;24661;53.566;9.910;2023-04-01T16:38:42;12.67;;;4.77;;
38901;SDS011;24661;53.566;9.910;2023-04-01T16:41:48;6.73;;;4.60;;
38901;SDS011;24661;53.566;9.910;2023-04-01T16:47:36;10.10;;;4.80;;
38901;SDS011;24661;53.566;9.910;2023-04-01T16:55:49;11.10;;;4.53;;
38901;SDS011;24661;53.566;9.910;2023-04-01T17:15:44;5.80;;;4.67;;
38901;SDS011;24661;53.566;9.910;2023-04-01T17:18:38;10.63;;;4.87;;
38901;SDS011;24661;53.566;9.910;2023-04-01T17:21:23;11.37;;;4.50;;
38901;SDS011;24661;53.566;9.910;2023-04-01T17:32:35;7.53;;;3.73;;
38901;SDS011;24661;53.566;9.910;2023-04-01T17:38:01;8.83;;;3.63;;
38901;SDS011;24661;53.566;9.910;2023-04-01T18:04:25;8.57;;;4.13;;
38901;SDS011;24661;53.566;9.910;2023-04-01T18:10:25;4.07;;;2.77;;
38901;SDS011;24661;53.566;9.910;2023-04-01T18:27:21;3.60;;;2.40;;
38901;SDS011;24661;53.566;9.910;2023-04-01T18:32:37;5.47;;;2.90;;
38901;SDS011;24661;53.566;9.910;2023-04-01T18:38:16;5.53;;;2.50;;
38901;SDS011;24661;53.566;9.910;2023-04-01T18:40:53;5.30;;;2.30;;
38901;SDS011;24661;53.566;9.910;2023-04-01T18:46:12;3.27;;;2.77;;
38901;SDS011;24661;53.566;9.910;2023-04-01T18:48:59;4.23;;;2.53;;
38901;SDS011;24661;53.566;9.910;2023-04-01T18:54:17;5.33;;;2.70;;
38901;SDS011;24661;53.566;9.910;2023-04-01T18:57:15;5.73;;;2.70;;
38901;SDS011;24661;53.566;9.910;2023-04-01T18:59:45;5.00;;;2.77;;
38901;SDS011;24661;53.566;9.910;2023-04-01T19:02:28;6.43;;;3.20;;
38901;SDS011;24661;53.566;9.910;2023-04-01T19:07:54;7.00;;;3.03;;
38901;SDS011;24661;53.566;9.910;2023-04-01T19:10:27;4.27;;;2.23;;
38901;SDS011;24661;53.566;9.910;2023-04-01T19:13:10;5.60;;;2.97;;
38901;SDS011;24661;53.566;9.910;2023-04-01T19:21:42;7.23;;;3.20;;
38901;SDS011;24661;53.566;9.910;2023-04-01T19:32:57;5.23;;;2.83;;
38901;SDS011;24661;53.566;9.910;2023-04-01T19:52:47;8.30;;;3.40;;
38901;SDS011;24661;53.566;9.910;2023-04-01T20:00:57;6.23;;;3.57;;
38901;SDS011;24661;53.566;9.910;2023-04-01T20:14:33;8.93;;;2.90;;
38901;SDS011;24661;53.566;9.910;2023-04-01T20:19:57;6.57;;;2.60;;
38901;SDS011;24661;53.566;9.910;2023-04-01T20:30:51;5.23;;;2.20;;
38901;SDS011;24661;53.566;9.910;2023-04-01T20:38:35;10.00;;;2.30;;
38901;SDS011;24661;53.566;9.910;2023-04-01T20:43:58;4.57;;;2.10;;
38901;SDS011;24661;53.566;9.910;2023-04-01T20:49:37;6.03;;;2.70;;
38901;SDS011;24661;53.566;9.910;2023-04-01T20:54:41;10.93;;;2.87;;
38901;SDS011;24661;53.566;9.910;2023-04-01T20:57:25;11.00;;;3.00;;
38901;SDS011;24661;53.566;9.910;2023-04-01T21:03:10;4.63;;;2.03;;
38901;SDS011;24661;53.566;9.910;2023-04-01T21:05:53;3.37;;;2.10;;
38901;SDS011;24661;53.566;9.910;2023-04-01T21:11:41;3.67;;;2.10;;
38901;SDS011;24661;53.566;9.910;2023-04-01T21:19:58;4.93;;;2.20;;
38901;SDS011;24661;53.566;9.910;2023-04-01T21:25:27;4.83;;;2.00;;
38901;SDS011;24661;53.566;9.910;2023-04-01T21:28:35;4.70;;;2.30;;
38901;SDS011;24661;53.566;9.910;2023-04-01T21:43:32;9.13;;;2.20;;
38901;SDS011;24661;53.566;9.910;2023-04-01T21:46:25;6.10;;;2.70;;
38901;SDS011;24661;53.566;9.910;2023-04-01T22:00:51;8.30;;;2.60;;
38901;SDS011;24661;53.566;9.910;2023-04-01T22:03:38;4.97;;;2.57;;
38901;SDS011;24661;53.566;9.910;2023-04-01T22:11:34;4.83;;;1.80;;
38901;SDS011;24661;53.566;9.910;2023-04-01T22:17:35;4.57;;;2.00;;
38901;SDS011;24661;53.566;9.910;2023-04-01T22:25:02;4.50;;;2.10;;
38901;SDS011;24661;53.566;9.910;2023-04-01T22:27:37;4.30;;;1.90;;
38901;SDS011;24661;53.566;9.910;2023-04-01T22:30:15;3.53;;;1.80;;
38901;SDS011;24661;53.566;9.910;2023-04-01T22:32:49;2.63;;;1.60;;
38901;SDS011;24661;53.566;9.910;2023-04-01T22:35:25;6.37;;;1.37;;
38901;SDS011;24661;53.566;9.910;2023-04-01T22:37:56;3.50;;;1.80;;
38901;SDS011;24661;53.566;9.910;2023-04-01T22:43:40;8.90;;;3.17;;
38901;SDS011;24661;53.566;9.910;2023-04-01T22:48:54;7.77;;;2.70;;
38901;SDS011;24661;53.566;9.910;2023-04-01T22:57:02;10.10;;;2.03;;
38901;SDS011;24661;53.566;9.910;2023-04-01T23:02:25;13.53;;;4.43;;
38901;SDS011;24661;53.566;9.910;2023-04-01T23:04:59;8.03;;;2.33;;
38901;SDS011;24661;53.566;9.910;2023-04-01T23:10:18;3.53;;;1.73;;
38901;SDS011;24661;53.566;9.910;2023-04-01T23:12:50;3.87;;;1.67;;
38901;SDS011;24661;53.566;9.910;2023-04-01T23:15:17;7.17;;;1.97;;
38901;SDS011;24661;53.566;9.910;2023-04-01T23:23:19;3.20;;;1.30;;
38901;SDS011;24661;53.566;9.910;2023-04-01T23:25:53;4.33;;;1.23;;
38901;SDS011;24661;53.566;9.910;2023-04-01T23:31:20;7.07;;;1.57;;
38901;SDS011;24661;53.566;9.910;2023-04-01T23:33:54;4.40;;;1.30;;
38901;SDS011;24661;53.566;9.910;2023-04-01T23:36:50;6.13;;;1.27;;
38901;SDS011;24661;53.566;9.910;2023-04-01T23:39:26;4.97;;;1.27;;
38901;SDS011;24661;53.566;9.910;2023-04-01T23:42:03;6.47;;;1.40;;
38901;SDS011;24661;53.566;9.910;2023-04-01T23:44:55;4.50;;;1.17;;
38901;SDS011;24661;53.566;9.910;2023-04-01T23:47:33;5.67;;;1.70;;
38901;SDS011;24661;53.566;9.910;2023-04-01T23:50:03;5.30;;;1.60;;
38901;SDS011;24661;53.566;9.910;2023-04-01T23:52:36;8.13;;;1.57;;
38901;SDS011;24661;53.566;9.910;2023-04-01T23:58:12;4.07;;;1.13;;
